GCHI Airport Information

Runway Information
Runway 16 Length 4101 ft width 98 ft
Elevation 71 ft Threshold 0 ft Heading 153
Runway 34 Length 4101 ft Width 98 ft
Elevation 103 ft Threshold 0 ft Heading 333
Airport Frequencies
Type A/D Name CANARIAS A Frequency 126.1 MHZ
Type GND Name GND Frequency 121.6 MHZ
Type TWR Name TWR Frequency 118.1 MHZ
Airport Navaids
Type NDB Name Hierro Frequency 376 KHZ
Type DME Name Hierro Frequency 113200 KHZ
Airport Weather Information & NOTAM
ADDS - METARS form results

(2338 UTC 27 September 2020)
Data provider http://aviationweather.gov/metar/data/
 
METAR text: GCHI 272330Z AUTO 36018KT 330V030 9999 FEW019 SCT040 23/19 Q1019
Conditions at: GCHI (HIERRO AIRPORT , ES) observed 2330 UTC 27 September 2020
Temperature: 23.0°C (73°F)
Dewpoint: 19.0°C (66°F) [RH = 78%]
Pressure (altimeter): 30.09 inches Hg (1019.0 mb)
Winds: from the N (360 degrees) at 21 MPH (18 knots; 9.3 m/s)
Visibility: 6 or more miles (10+ km)
Ceiling: at least 12,000 feet AGL
Clouds: few clouds at 1900 feet AGL
scattered clouds at 4000 feet AGL
Weather: no significant weather observed at this time

METAR text: GCHI 272300Z AUTO 36017KT 340V040 9999 SCT017 BKN023 BKN035 23/19 Q1019
Conditions at: GCHI (HIERRO AIRPORT , ES) observed 2300 UTC 27 September 2020
Temperature: 23.0°C (73°F)
Dewpoint: 19.0°C (66°F) [RH = 78%]
Pressure (altimeter): 30.09 inches Hg (1019.0 mb)
Winds: from the N (360 degrees) at 20 MPH (17 knots; 8.7 m/s)
Visibility: 6 or more miles (10+ km)
Ceiling: 2300 feet AGL
Clouds: scattered clouds at 1700 feet AGL
broken clouds at 2300 feet AGL
broken clouds at 3500 feet AGL
Weather: no significant weather observed at this time

Forecast for: GCHI (HIERRO AIRPORT , ES)
Text: TAF GCHI 272000Z 2721/2821 36015KT 9999 BKN020 TX26/2814Z TN22/2807Z
Forecast period: 2100 UTC 27 September 2020 to 2100 UTC 28 September 2020
Forecast type: FROM: standard forecast or significant change
Winds: from the N (360 degrees) at 17 MPH (15 knots; 7.7 m/s)
Visibility: 6 or more miles (10+ km)
Ceiling: 2000 feet AGL
Clouds: broken clouds at 2000 feet AGL
Weather: no significant weather forecast for this period
Text: TEMPO 2721/2819 01018G28KT
Forecast period: 2100 UTC 27 September 2020 to 1900 UTC 28 September 2020
Forecast type: TEMPORARY: The following changes expected for less than half the time period
Winds: from the N (10 degrees) at 21 MPH (18 knots; 9.3 m/s)
gusting to 32 MPH (28 knots; 14.4 m/s)
Visibility: missing
Ceiling: unknown
Clouds: missing
Weather: no significant weather forecast for this period